sensor_id;sensor_type;location;lat;lon;timestamp;temperature;humidity
56374;DHT22;58212;47.034;7.376;2022-08-21T00:00:40;16.60;99.90
56374;DHT22;58212;47.034;7.376;2022-08-21T00:03:09;16.60;99.90
56374;DHT22;58212;47.034;7.376;2022-08-21T00:05:39;16.60;99.90
56374;DHT22;58212;47.034;7.376;2022-08-21T00:08:06;16.60;99.90
56374;DHT22;58212;47.034;7.376;2022-08-21T00:10:33;16.60;99.90
56374;DHT22;58212;47.034;7.376;2022-08-21T00:13:03;16.60;99.90
56374;DHT22;58212;47.034;7.376;2022-08-21T00:15:32;16.50;99.90
56374;DHT22;58212;47.034;7.376;2022-08-21T00:18:03;16.50;99.90
56374;DHT22;58212;47.034;7.376;2022-08-21T00:20:31;16.50;99.90
56374;DHT22;58212;47.034;7.376;2022-08-21T00:23:01;16.50;99.90
56374;DHT22;58212;47.034;7.376;2022-08-21T00:25:28;16.60;99.90
56374;DHT22;58212;47.034;7.376;2022-08-21T00:27:56;16.60;99.90
56374;DHT22;58212;47.034;7.376;2022-08-21T00:30:28;16.60;99.90
56374;DHT22;58212;47.034;7.376;2022-08-21T00:32:57;16.70;99.90
56374;DHT22;58212;47.034;7.376;2022-08-21T00:35:28;16.80;99.90
56374;DHT22;58212;47.034;7.376;2022-08-21T00:37:56;16.80;99.90
56374;DHT22;58212;47.034;7.376;2022-08-21T00:40:28;16.70;99.90
56374;DHT22;58212;47.034;7.376;2022-08-21T00:42:59;16.70;99.90
56374;DHT22;58212;47.034;7.376;2022-08-21T00:45:27;16.70;99.90
56374;DHT22;58212;47.034;7.376;2022-08-21T00:47:56;16.80;99.90
56374;DHT22;58212;47.034;7.376;2022-08-21T00:50:26;16.80;99.90
56374;DHT22;58212;47.034;7.376;2022-08-21T00:52:55;16.80;99.90
56374;DHT22;58212;47.034;7.376;2022-08-21T00:55:23;16.80;99.90
56374;DHT22;58212;47.034;7.376;2022-08-21T00:57:53;16.70;99.90
56374;DHT22;58212;47.034;7.376;2022-08-21T01:00:25;16.80;99.90
56374;DHT22;58212;47.034;7.376;2022-08-21T01:02:56;16.80;99.90
56374;DHT22;58212;47.034;7.376;2022-08-21T01:05:23;16.80;99.90
56374;DHT22;58212;47.034;7.376;2022-08-21T01:07:50;16.80;99.90
56374;DHT22;58212;47.034;7.376;2022-08-21T01:10:18;16.80;99.90
56374;DHT22;58212;47.034;7.376;2022-08-21T01:12:47;16.90;99.90
56374;DHT22;58212;47.034;7.376;2022-08-21T01:15:17;17.00;99.90
56374;DHT22;58212;47.034;7.376;2022-08-21T01:17:45;17.00;99.90
56374;DHT22;58212;47.034;7.376;2022-08-21T01:20:14;17.00;99.90
56374;DHT22;58212;47.034;7.376;2022-08-21T01:22:43;16.90;99.90
56374;DHT22;58212;47.034;7.376;2022-08-21T01:25:14;16.90;99.90
56374;DHT22;58212;47.034;7.376;2022-08-21T01:27:44;16.80;99.90
56374;DHT22;58212;47.034;7.376;2022-08-21T01:30:14;16.90;99.90
56374;DHT22;58212;47.034;7.376;2022-08-21T01:32:45;16.90;99.90
56374;DHT22;58212;47.034;7.376;2022-08-21T01:35:14;17.00;99.90
56374;DHT22;58212;47.034;7.376;2022-08-21T01:37:44;17.00;99.90
56374;DHT22;58212;47.034;7.376;2022-08-21T01:40:13;17.00;99.90
56374;DHT22;58212;47.034;7.376;2022-08-21T01:42:41;17.00;99.90
56374;DHT22;58212;47.034;7.376;2022-08-21T01:45:09;17.00;99.90
56374;DHT22;58212;47.034;7.376;2022-08-21T01:47:37;17.00;99.90
56374;DHT22;58212;47.034;7.376;2022-08-21T01:50:10;17.00;99.90
56374;DHT22;58212;47.034;7.376;2022-08-21T01:52:37;17.00;99.90
56374;DHT22;58212;47.034;7.376;2022-08-21T01:55:08;17.00;99.90
56374;DHT22;58212;47.034;7.376;2022-08-21T01:57:35;16.90;99.90
56374;DHT22;58212;47.034;7.376;2022-08-21T02:00:05;16.90;99.90
56374;DHT22;58212;47.034;7.376;2022-08-21T02:02:37;16.80;99.90
56374;DHT22;58212;47.034;7.376;2022-08-21T02:05:06;16.80;99.90
56374;DHT22;58212;47.034;7.376;2022-08-21T02:07:36;16.70;99.90
56374;DHT22;58212;47.034;7.376;2022-08-21T02:10:08;16.70;99.90
56374;DHT22;58212;47.034;7.376;2022-08-21T02:12:35;16.70;99.90
56374;DHT22;58212;47.034;7.376;2022-08-21T02:15:03;16.70;99.90
56374;DHT22;58212;47.034;7.376;2022-08-21T02:17:38;16.70;99.90
56374;DHT22;58212;47.034;7.376;2022-08-21T02:20:06;16.80;99.90
56374;DHT22;58212;47.034;7.376;2022-08-21T02:22:33;16.70;99.90
56374;DHT22;58212;47.034;7.376;2022-08-21T02:25:01;16.70;99.90
56374;DHT22;58212;47.034;7.376;2022-08-21T02:27:29;16.60;99.90
56374;DHT22;58212;47.034;7.376;2022-08-21T02:29:58;16.70;99.90
56374;DHT22;58212;47.034;7.376;2022-08-21T02:32:25;16.70;99.90
56374;DHT22;58212;47.034;7.376;2022-08-21T02:34:52;16.80;99.90
56374;DHT22;58212;47.034;7.376;2022-08-21T02:37:23;16.70;99.90
56374;DHT22;58212;47.034;7.376;2022-08-21T02:39:50;16.60;99.90
56374;DHT22;58212;47.034;7.376;2022-08-21T02:42:19;16.60;99.90
56374;DHT22;58212;47.034;7.376;2022-08-21T02:44:50;16.40;99.90
56374;DHT22;58212;47.034;7.376;2022-08-21T02:47:17;16.40;99.90
56374;DHT22;58212;47.034;7.376;2022-08-21T02:49:47;16.60;99.90
56374;DHT22;58212;47.034;7.376;2022-08-21T02:52:16;16.60;99.90
56374;DHT22;58212;47.034;7.376;2022-08-21T02:54:43;16.60;99.90
56374;DHT22;58212;47.034;7.376;2022-08-21T02:57:10;16.70;99.90
56374;DHT22;58212;47.034;7.376;2022-08-21T02:59:38;16.70;99.90
56374;DHT22;58212;47.034;7.376;2022-08-21T03:02:07;16.80;99.90
56374;DHT22;58212;47.034;7.376;2022-08-21T03:04:37;16.70;99.90
56374;DHT22;58212;47.034;7.376;2022-08-21T03:07:04;16.70;99.90
56374;DHT22;58212;47.034;7.376;2022-08-21T03:09:31;16.70;99.90
56374;DHT22;58212;47.034;7.376;2022-08-21T03:11:58;16.70;99.90
56374;DHT22;58212;47.034;7.376;2022-08-21T03:14:25;16.60;99.90
56374;DHT22;58212;47.034;7.376;2022-08-21T03:16:54;16.60;99.90
56374;DHT22;58212;47.034;7.376;2022-08-21T03:19:23;16.60;99.90
56374;DHT22;58212;47.034;7.376;2022-08-21T03:21:52;16.50;99.90
56374;DHT22;58212;47.034;7.376;2022-08-21T03:24:19;16.40;99.90
56374;DHT22;58212;47.034;7.376;2022-08-21T03:26:46;16.40;99.90
56374;DHT22;58212;47.034;7.376;2022-08-21T03:29:13;16.40;99.90
56374;DHT22;58212;47.034;7.376;2022-08-21T03:31:43;16.30;99.90
56374;DHT22;58212;47.034;7.376;2022-08-21T03:34:10;16.20;99.90
56374;DHT22;58212;47.034;7.376;2022-08-21T03:36:39;16.30;99.90
56374;DHT22;58212;47.034;7.376;2022-08-21T03:39:08;16.20;99.90
56374;DHT22;58212;47.034;7.376;2022-08-21T03:41:36;16.20;99.90
56374;DHT22;58212;47.034;7.376;2022-08-21T03:44:03;16.20;99.90
56374;DHT22;58212;47.034;7.376;2022-08-21T03:46:30;16.30;99.90
56374;DHT22;58212;47.034;7.376;2022-08-21T03:48:57;16.20;99.90
56374;DHT22;58212;47.034;7.376;2022-08-21T03:51:27;16.30;99.90
56374;DHT22;58212;47.034;7.376;2022-08-21T03:53:55;16.40;99.90
56374;DHT22;58212;47.034;7.376;2022-08-21T03:56:22;16.30;99.90
56374;DHT22;58212;47.034;7.376;2022-08-21T03:58:49;16.30;99.90
56374;DHT22;58212;47.034;7.376;2022-08-21T04:01:16;16.30;99.90
56374;DHT22;58212;47.034;7.376;2022-08-21T04:03:43;16.20;99.90
56374;DHT22;58212;47.034;7.376;2022-08-21T04:06:15;16.30;99.90
56374;DHT22;58212;47.034;7.376;2022-08-21T04:08:43;16.20;99.90
56374;DHT22;58212;47.034;7.376;2022-08-21T04:11:12;16.20;99.90
56374;DHT22;58212;47.034;7.376;2022-08-21T04:13:40;16.20;99.90
56374;DHT22;58212;47.034;7.376;2022-08-21T04:16:10;16.10;99.90
56374;DHT22;58212;47.034;7.376;2022-08-21T04:18:37;16.00;99.90
56374;DHT22;58212;47.034;7.376;2022-08-21T04:21:05;16.00;99.90
56374;DHT22;58212;47.034;7.376;2022-08-21T04:23:32;16.00;99.90
56374;DHT22;58212;47.034;7.376;2022-08-21T04:25:59;16.00;99.90
56374;DHT22;58212;47.034;7.376;2022-08-21T04:28:28;16.00;99.90
56374;DHT22;58212;47.034;7.376;2022-08-21T04:30:55;16.00;99.90
56374;DHT22;58212;47.034;7.376;2022-08-21T04:33:25;15.80;99.90
56374;DHT22;58212;47.034;7.376;2022-08-21T04:35:52;15.80;99.90
56374;DHT22;58212;47.034;7.376;2022-08-21T04:38:19;15.80;99.90
56374;DHT22;58212;47.034;7.376;2022-08-21T04:40:47;15.70;99.90
56374;DHT22;58212;47.034;7.376;2022-08-21T04:43:15;15.70;99.90
56374;DHT22;58212;47.034;7.376;2022-08-21T04:45:46;15.60;99.90
56374;DHT22;58212;47.034;7.376;2022-08-21T04:48:16;15.70;99.90
56374;DHT22;58212;47.034;7.376;2022-08-21T04:50:48;15.70;99.90
56374;DHT22;58212;47.034;7.376;2022-08-21T04:53:23;15.80;99.90
56374;DHT22;58212;47.034;7.376;2022-08-21T04:55:52;15.80;99.90
56374;DHT22;58212;47.034;7.376;2022-08-21T04:58:23;15.70;99.90
56374;DHT22;58212;47.034;7.376;2022-08-21T05:00:54;15.70;99.90
56374;DHT22;58212;47.034;7.376;2022-08-21T05:03:22;15.70;99.90
56374;DHT22;58212;47.034;7.376;2022-08-21T05:05:52;15.70;99.90
56374;DHT22;58212;47.034;7.376;2022-08-21T05:08:21;15.60;99.90
56374;DHT22;58212;47.034;7.376;2022-08-21T05:10:50;15.50;99.90
56374;DHT22;58212;47.034;7.376;2022-08-21T05:13:19;15.80;99.90
56374;DHT22;58212;47.034;7.376;2022-08-21T05:15:46;17.40;99.90
56374;DHT22;58212;47.034;7.376;2022-08-21T05:18:15;18.60;99.90
56374;DHT22;58212;47.034;7.376;2022-08-21T05:20:42;19.40;99.90
56374;DHT22;58212;47.034;7.376;2022-08-21T05:23:11;20.10;99.90
56374;DHT22;58212;47.034;7.376;2022-08-21T05:25:40;19.90;99.90
56374;DHT22;58212;47.034;7.376;2022-08-21T05:28:07;18.70;99.90
56374;DHT22;58212;47.034;7.376;2022-08-21T05:30:35;17.50;99.90
56374;DHT22;58212;47.034;7.376;2022-08-21T05:33:03;17.40;99.90
56374;DHT22;58212;47.034;7.376;2022-08-21T05:35:33;17.60;99.90
56374;DHT22;58212;47.034;7.376;2022-08-21T05:38:01;18.50;99.90
56374;DHT22;58212;47.034;7.376;2022-08-21T05:40:28;18.70;99.90
56374;DHT22;58212;47.034;7.376;2022-08-21T05:42:56;19.00;99.90
56374;DHT22;58212;47.034;7.376;2022-08-21T05:45:26;19.30;99.90
56374;DHT22;58212;47.034;7.376;2022-08-21T05:47:54;19.40;99.90
56374;DHT22;58212;47.034;7.376;2022-08-21T05:50:21;18.40;99.90
56374;DHT22;58212;47.034;7.376;2022-08-21T05:52:52;17.90;99.90
56374;DHT22;58212;47.034;7.376;2022-08-21T05:55:21;17.40;99.90
56374;DHT22;58212;47.034;7.376;2022-08-21T05:57:48;18.20;99.90
56374;DHT22;58212;47.034;7.376;2022-08-21T06:00:16;19.00;99.90
56374;DHT22;58212;47.034;7.376;2022-08-21T06:02:43;19.50;99.90
56374;DHT22;58212;47.034;7.376;2022-08-21T06:05:10;19.60;99.90
56374;DHT22;58212;47.034;7.376;2022-08-21T06:07:38;20.30;99.90
56374;DHT22;58212;47.034;7.376;2022-08-21T06:10:09;20.60;99.90
56374;DHT22;58212;47.034;7.376;2022-08-21T06:12:37;20.80;99.90
56374;DHT22;58212;47.034;7.376;2022-08-21T06:15:05;21.10;99.90
56374;DHT22;58212;47.034;7.376;2022-08-21T06:17:32;20.10;99.90
56374;DHT22;58212;47.034;7.376;2022-08-21T06:19:59;19.60;99.90
56374;DHT22;58212;47.034;7.376;2022-08-21T06:22:26;18.50;99.90
56374;DHT22;58212;47.034;7.376;2022-08-21T06:24:54;17.60;99.90
56374;DHT22;58212;47.034;7.376;2022-08-21T06:27:23;17.30;99.90
56374;DHT22;58212;47.034;7.376;2022-08-21T06:29:52;17.30;99.90
56374;DHT22;58212;47.034;7.376;2022-08-21T06:32:21;17.50;99.90
56374;DHT22;58212;47.034;7.376;2022-08-21T06:34:48;17.50;99.90
56374;DHT22;58212;47.034;7.376;2022-08-21T06:37:15;17.00;99.90
56374;DHT22;58212;47.034;7.376;2022-08-21T06:39:42;17.10;99.90
56374;DHT22;58212;47.034;7.376;2022-08-21T06:42:14;17.10;99.90
56374;DHT22;58212;47.034;7.376;2022-08-21T06:44:43;17.00;99.90
56374;DHT22;58212;47.034;7.376;2022-08-21T06:47:10;17.30;99.90
56374;DHT22;58212;47.034;7.376;2022-08-21T06:49:59;17.50;99.90
56374;DHT22;58212;47.034;7.376;2022-08-21T06:53:23;17.00;99.90
56374;DHT22;58212;47.034;7.376;2022-08-21T07:00:04;17.30;99.90
56374;DHT22;58212;47.034;7.376;2022-08-21T07:02:32;17.20;99.90
56374;DHT22;58212;47.034;7.376;2022-08-21T07:04:59;17.10;99.90
56374;DHT22;58212;47.034;7.376;2022-08-21T07:07:27;17.10;99.90
56374;DHT22;58212;47.034;7.376;2022-08-21T07:09:54;17.10;99.90
56374;DHT22;58212;47.034;7.376;2022-08-21T07:12:23;17.00;99.90
56374;DHT22;58212;47.034;7.376;2022-08-21T07:14:51;17.30;99.90
56374;DHT22;58212;47.034;7.376;2022-08-21T07:17:20;17.50;99.90
56374;DHT22;58212;47.034;7.376;2022-08-21T07:19:47;17.70;99.90
56374;DHT22;58212;47.034;7.376;2022-08-21T07:22:17;17.40;99.90
56374;DHT22;58212;47.034;7.376;2022-08-21T07:24:45;17.40;99.90
56374;DHT22;58212;47.034;7.376;2022-08-21T07:27:12;17.30;99.90
56374;DHT22;58212;47.034;7.376;2022-08-21T07:29:39;17.40;99.90
56374;DHT22;58212;47.034;7.376;2022-08-21T07:32:07;17.40;99.90
56374;DHT22;58212;47.034;7.376;2022-08-21T07:34:35;17.80;99.90
56374;DHT22;58212;47.034;7.376;2022-08-21T07:37:03;18.10;99.90
56374;DHT22;58212;47.034;7.376;2022-08-21T07:39:30;18.10;99.90
56374;DHT22;58212;47.034;7.376;2022-08-21T07:41:57;17.80;99.90
56374;DHT22;58212;47.034;7.376;2022-08-21T07:44:24;17.90;99.90
56374;DHT22;58212;47.034;7.376;2022-08-21T07:46:51;18.00;99.90
56374;DHT22;58212;47.034;7.376;2022-08-21T07:49:18;18.40;99.90
56374;DHT22;58212;47.034;7.376;2022-08-21T07:51:46;18.70;99.90
56374;DHT22;58212;47.034;7.376;2022-08-21T07:54:13;18.70;99.90
56374;DHT22;58212;47.034;7.376;2022-08-21T07:56:40;18.70;99.90
56374;DHT22;58212;47.034;7.376;2022-08-21T07:59:07;18.90;99.90
56374;DHT22;58212;47.034;7.376;2022-08-21T08:01:35;19.10;99.90
56374;DHT22;58212;47.034;7.376;2022-08-21T08:04:02;19.40;99.90
56374;DHT22;58212;47.034;7.376;2022-08-21T08:06:31;19.70;99.90
56374;DHT22;58212;47.034;7.376;2022-08-21T08:09:02;20.20;99.90
56374;DHT22;58212;47.034;7.376;2022-08-21T08:11:30;20.10;99.90
56374;DHT22;58212;47.034;7.376;2022-08-21T08:14:06;20.60;99.90
56374;DHT22;58212;47.034;7.376;2022-08-21T08:16:36;20.90;99.90
56374;DHT22;58212;47.034;7.376;2022-08-21T08:19:03;20.50;99.90
56374;DHT22;58212;47.034;7.376;2022-08-21T08:21:31;20.40;99.90
56374;DHT22;58212;47.034;7.376;2022-08-21T08:23:59;20.70;99.90
56374;DHT22;58212;47.034;7.376;2022-08-21T08:26:27;20.80;99.90
56374;DHT22;58212;47.034;7.376;2022-08-21T08:28:55;21.00;99.90
56374;DHT22;58212;47.034;7.376;2022-08-21T08:31:26;21.20;99.90
56374;DHT22;58212;47.034;7.376;2022-08-21T08:33:53;21.40;99.90
56374;DHT22;58212;47.034;7.376;2022-08-21T08:36:20;21.40;99.90
56374;DHT22;58212;47.034;7.376;2022-08-21T08:38:57;21.40;99.90
56374;DHT22;58212;47.034;7.376;2022-08-21T08:41:27;21.30;99.90
56374;DHT22;58212;47.034;7.376;2022-08-21T08:44:00;21.50;99.90
56374;DHT22;58212;47.034;7.376;2022-08-21T08:46:36;20.80;99.90
56374;DHT22;58212;47.034;7.376;2022-08-21T08:49:27;21.20;99.90
56374;DHT22;58212;47.034;7.376;2022-08-21T08:52:48;21.20;99.90
56374;DHT22;58212;47.034;7.376;2022-08-21T08:55:36;21.50;99.90
56374;DHT22;58212;47.034;7.376;2022-08-21T13:33:55;26.10;99.90
56374;DHT22;58212;47.034;7.376;2022-08-21T13:36:26;26.20;99.90
56374;DHT22;58212;47.034;7.376;2022-08-21T13:38:56;26.20;99.90
56374;DHT22;58212;47.034;7.376;2022-08-21T13:45:16;26.40;99.90
56374;DHT22;58212;47.034;7.376;2022-08-21T13:47:45;26.40;99.90
56374;DHT22;58212;47.034;7.376;2022-08-21T13:50:16;26.20;99.90
56374;DHT22;58212;47.034;7.376;2022-08-21T13:52:54;26.20;99.90
56374;DHT22;58212;47.034;7.376;2022-08-21T13:55:23;26.10;99.90
56374;DHT22;58212;47.034;7.376;2022-08-21T13:57:59;26.20;99.90
56374;DHT22;58212;47.034;7.376;2022-08-21T14:00:28;26.00;99.90
56374;DHT22;58212;47.034;7.376;2022-08-21T14:03:02;25.90;99.90
56374;DHT22;58212;47.034;7.376;2022-08-21T14:05:33;25.90;99.90
56374;DHT22;58212;47.034;7.376;2022-08-21T14:08:06;26.20;99.90
56374;DHT22;58212;47.034;7.376;2022-08-21T14:10:41;26.30;99.90
56374;DHT22;58212;47.034;7.376;2022-08-21T14:13:24;26.40;99.90
56374;DHT22;58212;47.034;7.376;2022-08-21T14:15:56;26.20;99.90
56374;DHT22;58212;47.034;7.376;2022-08-21T14:18:24;26.20;99.90
56374;DHT22;58212;47.034;7.376;2022-08-21T14:21:04;26.30;99.90
56374;DHT22;58212;47.034;7.376;2022-08-21T14:23:32;26.40;99.90
56374;DHT22;58212;47.034;7.376;2022-08-21T14:26:00;25.90;99.90
56374;DHT22;58212;47.034;7.376;2022-08-21T14:28:31;26.10;99.90
56374;DHT22;58212;47.034;7.376;2022-08-21T14:31:13;26.00;99.90
56374;DHT22;58212;47.034;7.376;2022-08-21T14:33:42;26.00;99.90
56374;DHT22;58212;47.034;7.376;2022-08-21T14:36:11;26.10;99.90
56374;DHT22;58212;47.034;7.376;2022-08-21T14:38:43;26.10;99.90
56374;DHT22;58212;47.034;7.376;2022-08-21T14:41:27;26.00;99.90
56374;DHT22;58212;47.034;7.376;2022-08-21T14:43:57;25.90;99.90
56374;DHT22;58212;47.034;7.376;2022-08-21T14:46:27;25.80;99.90
56374;DHT22;58212;47.034;7.376;2022-08-21T14:48:56;25.70;99.90
56374;DHT22;58212;47.034;7.376;2022-08-21T14:51:24;25.40;99.90
56374;DHT22;58212;47.034;7.376;2022-08-21T14:53:55;25.30;99.90
56374;DHT22;58212;47.034;7.376;2022-08-21T14:56:23;25.60;99.90
56374;DHT22;58212;47.034;7.376;2022-08-21T14:58:52;25.20;99.90
56374;DHT22;58212;47.034;7.376;2022-08-21T15:01:22;25.20;99.90
56374;DHT22;58212;47.034;7.376;2022-08-21T15:03:49;25.40;99.90
56374;DHT22;58212;47.034;7.376;2022-08-21T15:06:17;25.60;99.90
56374;DHT22;58212;47.034;7.376;2022-08-21T15:08:49;25.60;99.90
56374;DHT22;58212;47.034;7.376;2022-08-21T15:11:19;25.40;99.90
56374;DHT22;58212;47.034;7.376;2022-08-21T15:13:56;25.10;99.90
56374;DHT22;58212;47.034;7.376;2022-08-21T15:16:26;25.20;99.90
56374;DHT22;58212;47.034;7.376;2022-08-21T15:18:56;25.40;99.90
56374;DHT22;58212;47.034;7.376;2022-08-21T15:21:24;25.40;99.90
56374;DHT22;58212;47.034;7.376;2022-08-21T15:23:53;25.20;99.90
56374;DHT22;58212;47.034;7.376;2022-08-21T15:26:22;25.00;99.90
56374;DHT22;58212;47.034;7.376;2022-08-21T15:28:51;25.10;99.90
56374;DHT22;58212;47.034;7.376;2022-08-21T15:31:19;25.20;99.90
56374;DHT22;58212;47.034;7.376;2022-08-21T15:33:47;25.40;99.90
56374;DHT22;58212;47.034;7.376;2022-08-21T15:36:17;25.40;99.90
56374;DHT22;58212;47.034;7.376;2022-08-21T15:38:46;25.40;99.90
56374;DHT22;58212;47.034;7.376;2022-08-21T15:41:16;25.20;99.90
56374;DHT22;58212;47.034;7.376;2022-08-21T15:43:48;25.20;99.90
56374;DHT22;58212;47.034;7.376;2022-08-21T15:46:18;25.30;99.90
56374;DHT22;58212;47.034;7.376;2022-08-21T15:48:46;25.10;99.90
56374;DHT22;58212;47.034;7.376;2022-08-21T15:51:15;25.10;99.90
56374;DHT22;58212;47.034;7.376;2022-08-21T15:53:42;25.00;99.90
56374;DHT22;58212;47.034;7.376;2022-08-21T15:56:17;25.00;99.90
56374;DHT22;58212;47.034;7.376;2022-08-21T15:58:47;25.00;99.90
56374;DHT22;58212;47.034;7.376;2022-08-21T16:01:22;25.00;99.90
56374;DHT22;58212;47.034;7.376;2022-08-21T16:03:54;24.80;99.90
56374;DHT22;58212;47.034;7.376;2022-08-21T16:06:22;24.80;99.90
56374;DHT22;58212;47.034;7.376;2022-08-21T16:08:50;24.80;99.90
56374;DHT22;58212;47.034;7.376;2022-08-21T16:11:19;24.70;99.90
56374;DHT22;58212;47.034;7.376;2022-08-21T16:13:49;24.60;99.90
56374;DHT22;58212;47.034;7.376;2022-08-21T16:16:19;24.60;99.90
56374;DHT22;58212;47.034;7.376;2022-08-21T16:18:48;24.50;99.90
56374;DHT22;58212;47.034;7.376;2022-08-21T16:21:17;24.50;99.90
56374;DHT22;58212;47.034;7.376;2022-08-21T16:23:44;24.40;99.90
56374;DHT22;58212;47.034;7.376;2022-08-21T16:26:12;24.40;99.90
56374;DHT22;58212;47.034;7.376;2022-08-21T16:28:43;24.40;99.90
56374;DHT22;58212;47.034;7.376;2022-08-21T16:31:13;24.30;99.90
56374;DHT22;58212;47.034;7.376;2022-08-21T16:33:44;24.30;99.90
56374;DHT22;58212;47.034;7.376;2022-08-21T16:36:13;24.10;99.90
56374;DHT22;58212;47.034;7.376;2022-08-21T16:38:41;24.10;99.90
56374;DHT22;58212;47.034;7.376;2022-08-21T16:41:11;24.00;99.90
56374;DHT22;58212;47.034;7.376;2022-08-21T16:43:39;24.10;99.90
56374;DHT22;58212;47.034;7.376;2022-08-21T16:46:12;24.10;99.90
56374;DHT22;58212;47.034;7.376;2022-08-21T16:48:41;24.00;99.90
56374;DHT22;58212;47.034;7.376;2022-08-21T16:51:37;24.00;99.90
56374;DHT22;58212;47.034;7.376;2022-08-21T16:54:06;24.10;99.90
56374;DHT22;58212;47.034;7.376;2022-08-21T16:56:34;24.00;99.90
56374;DHT22;58212;47.034;7.376;2022-08-21T16:59:04;23.60;99.90
56374;DHT22;58212;47.034;7.376;2022-08-21T17:01:38;23.30;99.90
56374;DHT22;58212;47.034;7.376;2022-08-21T17:04:05;22.90;99.90
56374;DHT22;58212;47.034;7.376;2022-08-21T17:06:36;22.90;99.90
56374;DHT22;58212;47.034;7.376;2022-08-21T17:09:06;22.80;99.90
56374;DHT22;58212;47.034;7.376;2022-08-21T17:11:36;22.80;99.90
56374;DHT22;58212;47.034;7.376;2022-08-21T17:14:06;22.80;99.90
56374;DHT22;58212;47.034;7.376;2022-08-21T17:16:41;22.70;99.90
56374;DHT22;58212;47.034;7.376;2022-08-21T17:19:13;22.60;99.90
56374;DHT22;58212;47.034;7.376;2022-08-21T17:21:40;22.40;99.90
56374;DHT22;58212;47.034;7.376;2022-08-21T17:24:09;22.40;99.90
56374;DHT22;58212;47.034;7.376;2022-08-21T17:26:38;22.40;99.90
56374;DHT22;58212;47.034;7.376;2022-08-21T17:29:05;22.40;99.90
56374;DHT22;58212;47.034;7.376;2022-08-21T17:31:35;22.30;99.90
56374;DHT22;58212;47.034;7.376;2022-08-21T17:34:05;22.30;99.90
56374;DHT22;58212;47.034;7.376;2022-08-21T17:36:33;22.40;99.90
56374;DHT22;58212;47.034;7.376;2022-08-21T17:39:02;22.30;99.90
56374;DHT22;58212;47.034;7.376;2022-08-21T17:41:40;22.20;99.90
56374;DHT22;58212;47.034;7.376;2022-08-21T17:44:09;22.10;99.90
56374;DHT22;58212;47.034;7.376;2022-08-21T17:46:38;22.10;99.90
56374;DHT22;58212;47.034;7.376;2022-08-21T17:49:08;22.00;99.90
56374;DHT22;58212;47.034;7.376;2022-08-21T17:51:36;22.00;99.90
56374;DHT22;58212;47.034;7.376;2022-08-21T17:54:04;21.90;99.90
56374;DHT22;58212;47.034;7.376;2022-08-21T17:56:38;21.90;99.90
56374;DHT22;58212;47.034;7.376;2022-08-21T17:59:07;21.90;99.90
56374;DHT22;58212;47.034;7.376;2022-08-21T18:01:39;21.90;99.90
56374;DHT22;58212;47.034;7.376;2022-08-21T18:04:10;21.70;99.90
56374;DHT22;58212;47.034;7.376;2022-08-21T18:06:39;21.60;99.90
56374;DHT22;58212;47.034;7.376;2022-08-21T18:09:08;21.50;99.90
56374;DHT22;58212;47.034;7.376;2022-08-21T18:11:39;21.40;99.90
56374;DHT22;58212;47.034;7.376;2022-08-21T18:14:11;21.50;99.90
56374;DHT22;58212;47.034;7.376;2022-08-21T18:16:43;21.60;99.90
56374;DHT22;58212;47.034;7.376;2022-08-21T18:19:16;21.50;99.90
56374;DHT22;58212;47.034;7.376;2022-08-21T18:21:55;21.50;99.90
56374;DHT22;58212;47.034;7.376;2022-08-21T18:24:26;21.60;99.90
56374;DHT22;58212;47.034;7.376;2022-08-21T18:26:54;21.40;99.90
56374;DHT22;58212;47.034;7.376;2022-08-21T18:29:23;21.30;99.90
56374;DHT22;58212;47.034;7.376;2022-08-21T18:31:50;21.30;99.90
56374;DHT22;58212;47.034;7.376;2022-08-21T18:34:25;21.30;99.90
56374;DHT22;58212;47.034;7.376;2022-08-21T18:36:55;21.20;99.90
56374;DHT22;58212;47.034;7.376;2022-08-21T18:39:24;21.20;99.90
56374;DHT22;58212;47.034;7.376;2022-08-21T18:41:53;21.20;99.90
56374;DHT22;58212;47.034;7.376;2022-08-21T18:44:23;21.20;99.90
56374;DHT22;58212;47.034;7.376;2022-08-21T18:46:55;21.10;99.90
56374;DHT22;58212;47.034;7.376;2022-08-21T18:49:26;21.00;99.90
56374;DHT22;58212;47.034;7.376;2022-08-21T18:51:56;21.00;99.90
56374;DHT22;58212;47.034;7.376;2022-08-21T18:54:25;20.90;99.90
56374;DHT22;58212;47.034;7.376;2022-08-21T18:56:53;20.80;99.90
56374;DHT22;58212;47.034;7.376;2022-08-21T18:59:20;20.70;99.90
56374;DHT22;58212;47.034;7.376;2022-08-21T19:01:48;20.50;99.90
56374;DHT22;58212;47.034;7.376;2022-08-21T19:04:16;20.50;99.90
56374;DHT22;58212;47.034;7.376;2022-08-21T19:06:44;20.40;99.90
56374;DHT22;58212;47.034;7.376;2022-08-21T19:09:12;20.20;99.90
56374;DHT22;58212;47.034;7.376;2022-08-21T19:11:40;20.10;99.90
56374;DHT22;58212;47.034;7.376;2022-08-21T19:14:10;19.90;99.90
56374;DHT22;58212;47.034;7.376;2022-08-21T19:16:40;19.80;99.90
56374;DHT22;58212;47.034;7.376;2022-08-21T19:19:09;19.80;99.90
56374;DHT22;58212;47.034;7.376;2022-08-21T19:21:37;19.80;99.90
56374;DHT22;58212;47.034;7.376;2022-08-21T19:24:06;19.90;99.90
56374;DHT22;58212;47.034;7.376;2022-08-21T19:26:33;19.90;99.90
56374;DHT22;58212;47.034;7.376;2022-08-21T19:29:06;19.80;99.90
56374;DHT22;58212;47.034;7.376;2022-08-21T19:31:40;19.60;99.90
56374;DHT22;58212;47.034;7.376;2022-08-21T19:34:12;19.40;99.90
56374;DHT22;58212;47.034;7.376;2022-08-21T19:36:41;19.30;99.90
56374;DHT22;58212;47.034;7.376;2022-08-21T19:39:11;19.20;99.90
56374;DHT22;58212;47.034;7.376;2022-08-21T19:41:43;19.10;99.90
56374;DHT22;58212;47.034;7.376;2022-08-21T19:44:13;19.10;99.90
56374;DHT22;58212;47.034;7.376;2022-08-21T19:46:44;19.10;99.90
56374;DHT22;58212;47.034;7.376;2022-08-21T19:49:15;19.10;99.90
56374;DHT22;58212;47.034;7.376;2022-08-21T19:51:43;19.10;99.90
56374;DHT22;58212;47.034;7.376;2022-08-21T19:54:14;19.00;99.90
56374;DHT22;58212;47.034;7.376;2022-08-21T19:56:45;19.00;99.90
56374;DHT22;58212;47.034;7.376;2022-08-21T19:59:14;18.90;99.90
56374;DHT22;58212;47.034;7.376;2022-08-21T20:01:43;18.90;99.90
56374;DHT22;58212;47.034;7.376;2022-08-21T20:04:11;18.80;99.90
56374;DHT22;58212;47.034;7.376;2022-08-21T20:06:39;18.80;99.90
56374;DHT22;58212;47.034;7.376;2022-08-21T20:09:11;18.80;99.90
56374;DHT22;58212;47.034;7.376;2022-08-21T20:11:43;18.80;99.90
56374;DHT22;58212;47.034;7.376;2022-08-21T20:14:13;18.80;99.90
56374;DHT22;58212;47.034;7.376;2022-08-21T20:16:45;18.80;99.90
56374;DHT22;58212;47.034;7.376;2022-08-21T20:19:13;18.70;99.90
56374;DHT22;58212;47.034;7.376;2022-08-21T20:21:43;18.70;99.90
56374;DHT22;58212;47.034;7.376;2022-08-21T20:24:12;18.50;99.90
56374;DHT22;58212;47.034;7.376;2022-08-21T20:26:40;18.30;99.90
56374;DHT22;58212;47.034;7.376;2022-08-21T20:29:08;18.20;99.90